createdAt,value
2022-07-29T00:01:19.509Z,27.52
2022-07-29T00:03:47.030Z,27.40
2022-07-29T00:06:15.653Z,27.42
2022-07-29T00:08:42.740Z,27.43
2022-07-29T00:11:09.935Z,27.46
2022-07-29T00:13:37.289Z,27.49
2022-07-29T00:16:05.314Z,27.53
2022-07-29T00:18:33.476Z,27.56
2022-07-29T00:21:00.891Z,27.55
2022-07-29T00:23:27.947Z,27.55
2022-07-29T00:25:54.946Z,27.43
2022-07-29T00:28:21.885Z,27.37
2022-07-29T00:30:49.052Z,27.30
2022-07-29T00:33:16.126Z,27.32
2022-07-29T00:35:45.869Z,27.33
2022-07-29T00:38:18.754Z,27.36
2022-07-29T00:40:47.257Z,27.29
2022-07-29T00:43:16.202Z,27.22
2022-07-29T00:45:43.795Z,27.17
2022-07-29T00:48:11.459Z,27.19
2022-07-29T00:50:39.308Z,27.22
2022-07-29T00:53:09.602Z,27.23
2022-07-29T00:55:36.860Z,27.25
2022-07-29T00:58:04.056Z,27.25
2022-07-29T01:00:31.615Z,27.27
2022-07-29T01:02:58.898Z,27.28
2022-07-29T01:05:50.188Z,27.31
2022-07-29T01:08:17.455Z,27.26
2022-07-29T01:10:45.525Z,27.23
2022-07-29T01:13:13.563Z,27.18
2022-07-29T01:15:49.105Z,27.17
2022-07-29T01:18:48.387Z,27.07
2022-07-29T01:21:39.005Z,26.99
2022-07-29T01:24:51.800Z,26.95
2022-07-29T01:27:30.582Z,26.89
2022-07-29T01:30:01.085Z,26.88
2022-07-29T01:32:39.086Z,26.88
2022-07-29T01:35:23.404Z,26.88
2022-07-29T01:38:12.347Z,26.83
2022-07-29T01:40:49.588Z,26.79
2022-07-29T01:43:22.677Z,26.76
2022-07-29T01:45:58.892Z,26.74
2022-07-29T01:48:40.295Z,26.72
2022-07-29T01:51:16.268Z,26.76
2022-07-29T01:53:57.996Z,26.74
2022-07-29T01:56:26.726Z,26.71
2022-07-29T01:58:55.744Z,26.68
2022-07-29T02:01:26.928Z,26.66
2022-07-29T02:03:55.434Z,26.64
2022-07-29T02:06:24.139Z,26.60
2022-07-29T02:08:54.194Z,26.58
2022-07-29T02:11:21.139Z,26.55
2022-07-29T02:13:49.951Z,26.51
2022-07-29T02:16:22.355Z,26.46
2022-07-29T02:18:52.457Z,26.46
2022-07-29T02:21:28.442Z,26.44
2022-07-29T02:24:00.166Z,26.41
2022-07-29T02:26:29.711Z,26.39
2022-07-29T02:28:58.746Z,26.33
2022-07-29T02:31:31.608Z,26.31
2022-07-29T02:33:59.661Z,26.26
2022-07-29T02:36:28.231Z,26.23
2022-07-29T02:38:58.737Z,26.23
2022-07-29T02:41:31.747Z,26.21
2022-07-29T02:44:07.648Z,26.21
2022-07-29T02:46:37.942Z,26.17
2022-07-29T02:49:35.800Z,26.13
2022-07-29T02:52:22.359Z,26.08
2022-07-29T02:55:03.520Z,26.09
2022-07-29T02:57:54.690Z,26.11
2022-07-29T03:00:28.893Z,26.14
2022-07-29T03:02:59.806Z,26.13
2022-07-29T03:05:27.865Z,26.10
2022-07-29T03:08:03.194Z,26.07
2022-07-29T03:10:31.591Z,26.06
2022-07-29T03:12:59.544Z,26.07
2022-07-29T03:15:27.515Z,26.11
2022-07-29T03:17:56.555Z,26.14
2022-07-29T03:20:24.003Z,26.16
2022-07-29T03:22:51.374Z,26.14
2022-07-29T03:25:20.990Z,26.10
2022-07-29T03:27:49.528Z,26.02
2022-07-29T03:30:18.404Z,25.98
2022-07-29T03:32:53.856Z,25.97
2022-07-29T03:35:21.599Z,25.97
2022-07-29T03:37:48.613Z,25.97
2022-07-29T03:40:25.954Z,25.99
2022-07-29T03:42:55.877Z,25.97
2022-07-29T03:45:24.958Z,25.98
2022-07-29T03:48:05.058Z,25.98
2022-07-29T03:50:34.203Z,25.96
2022-07-29T03:53:02.821Z,25.97
2022-07-29T03:55:35.042Z,25.99
2022-07-29T03:58:04.202Z,26.00
2022-07-29T04:00:33.202Z,26.00
2022-07-29T04:03:00.845Z,26.00
2022-07-29T04:05:28.348Z,26.01
2022-07-29T04:07:55.458Z,26.00
2022-07-29T04:10:30.658Z,26.00
2022-07-29T04:13:00.823Z,25.97
2022-07-29T04:15:31.358Z,25.92
2022-07-29T04:18:00.123Z,25.88
2022-07-29T04:20:27.485Z,25.87
2022-07-29T04:22:54.455Z,25.87
2022-07-29T04:25:21.667Z,25.85
2022-07-29T04:28:04.055Z,25.78
2022-07-29T04:30:32.885Z,25.75
2022-07-29T04:33:02.130Z,25.74
2022-07-29T04:35:31.097Z,25.73
2022-07-29T04:38:07.049Z,25.70
2022-07-29T04:40:35.099Z,25.65
2022-07-29T04:43:05.885Z,25.67
2022-07-29T04:45:33.230Z,25.69
2022-07-29T04:48:00.236Z,25.69
2022-07-29T04:50:27.407Z,25.67
2022-07-29T04:52:54.432Z,25.61
2022-07-29T04:55:21.710Z,25.60
2022-07-29T04:57:49.189Z,25.67
2022-07-29T05:00:17.141Z,25.59
2022-07-29T05:02:44.475Z,25.56
2022-07-29T05:05:11.947Z,25.56
2022-07-29T05:07:42.357Z,25.58
2022-07-29T05:10:10.030Z,25.56
2022-07-29T05:12:37.091Z,25.58
2022-07-29T05:15:04.657Z,25.61
2022-07-29T05:17:31.775Z,25.64
2022-07-29T05:19:58.960Z,25.70
2022-07-29T05:22:26.264Z,25.72
2022-07-29T05:24:53.581Z,25.74
2022-07-29T05:27:20.979Z,25.76
2022-07-29T05:29:48.358Z,25.82
2022-07-29T05:32:15.681Z,25.86
2022-07-29T05:34:50.813Z,25.91
2022-07-29T05:37:20.911Z,25.95
2022-07-29T05:39:50.694Z,26.00
2022-07-29T05:42:26.317Z,25.94
2022-07-29T05:44:54.075Z,25.89
2022-07-29T05:47:25.084Z,25.90
2022-07-29T05:49:52.213Z,25.92
2022-07-29T05:52:19.523Z,25.97
2022-07-29T05:54:46.757Z,25.98
2022-07-29T05:57:22.696Z,26.03
2022-07-29T05:59:51.239Z,26.06
2022-07-29T06:02:18.812Z,26.06
2022-07-29T06:04:45.976Z,26.05
2022-07-29T06:07:12.996Z,26.09
2022-07-29T06:09:40.207Z,26.10
2022-07-29T06:12:07.374Z,26.15
2022-07-29T06:14:34.367Z,26.18
2022-07-29T06:17:01.533Z,26.19
2022-07-29T06:19:28.586Z,26.21
2022-07-29T06:21:55.958Z,26.26
2022-07-29T06:24:23.002Z,26.24
2022-07-29T06:26:50.175Z,26.27
2022-07-29T06:29:17.155Z,26.27
2022-07-29T06:31:44.122Z,26.27
2022-07-29T06:34:11.351Z,26.28
2022-07-29T06:36:39.751Z,26.26
2022-07-29T06:39:09.460Z,26.26
2022-07-29T06:41:38.639Z,26.24
2022-07-29T06:44:10.881Z,26.30
2022-07-29T06:46:38.001Z,26.25
2022-07-29T06:49:05.931Z,26.19
2022-07-29T06:51:33.192Z,26.25
2022-07-29T06:54:03.379Z,26.16
2022-07-29T06:56:39.856Z,26.24
2022-07-29T06:59:10.117Z,26.27
2022-07-29T07:01:43.171Z,26.30
2022-07-29T07:04:11.821Z,26.32
2022-07-29T07:06:39.278Z,26.38
2022-07-29T07:09:06.673Z,26.42
2022-07-29T07:11:34.419Z,26.34
2022-07-29T07:14:03.938Z,26.44
2022-07-29T07:16:32.731Z,26.46
2022-07-29T07:19:00.748Z,26.52
2022-07-29T07:21:30.143Z,26.50
2022-07-29T07:23:58.613Z,26.51
2022-07-29T07:26:26.232Z,26.53
2022-07-29T07:28:53.224Z,26.57
2022-07-29T07:31:20.970Z,26.65
2022-07-29T07:33:48.238Z,26.68
2022-07-29T07:36:15.664Z,26.72
2022-07-29T07:38:42.887Z,26.76
2022-07-29T07:41:10.041Z,26.84
2022-07-29T07:43:37.076Z,26.90
2022-07-29T07:46:04.179Z,26.98
2022-07-29T07:48:31.430Z,27.03
2022-07-29T07:50:58.422Z,27.09
2022-07-29T07:53:25.517Z,27.11
2022-07-29T07:56:10.069Z,27.09
2022-07-29T07:58:38.406Z,27.20
2022-07-29T08:01:05.507Z,27.14
2022-07-29T08:03:32.627Z,27.17
2022-07-29T08:05:59.631Z,27.24
2022-07-29T08:08:26.690Z,27.15
2022-07-29T08:10:53.782Z,27.26
2022-07-29T08:13:29.321Z,27.23
2022-07-29T08:16:12.360Z,27.30
2022-07-29T08:18:41.843Z,27.25
2022-07-29T08:21:09.074Z,27.31
2022-07-29T08:23:46.239Z,27.41
2022-07-29T08:26:16.542Z,27.51
2022-07-29T08:28:46.841Z,27.50
2022-07-29T08:31:15.051Z,27.50
2022-07-29T08:33:43.329Z,27.57
2022-07-29T08:36:11.120Z,27.62
2022-07-29T08:38:38.254Z,27.67
2022-07-29T08:41:05.954Z,27.74
2022-07-29T08:43:36.094Z,27.81
2022-07-29T08:46:03.242Z,27.89
2022-07-29T08:48:30.833Z,27.96
2022-07-29T08:50:59.017Z,28.01
2022-07-29T08:53:28.190Z,28.06
2022-07-29T08:55:57.084Z,28.11
2022-07-29T08:58:25.972Z,28.17
2022-07-29T09:00:56.679Z,28.27
2022-07-29T09:03:31.322Z,28.35
2022-07-29T09:06:00.251Z,28.40
2022-07-29T09:08:27.663Z,28.46
2022-07-29T09:10:56.847Z,28.46
2022-07-29T09:13:24.073Z,28.48
2022-07-29T09:15:51.014Z,28.53
2022-07-29T09:18:41.731Z,28.63
2022-07-29T09:21:33.558Z,28.69
2022-07-29T09:24:11.594Z,28.76
2022-07-29T09:26:45.421Z,28.80
2022-07-29T09:29:16.223Z,28.85
2022-07-29T09:31:49.823Z,28.89
2022-07-29T09:34:22.019Z,28.90
2022-07-29T09:36:52.041Z,29.03
2022-07-29T09:39:45.181Z,29.09
2022-07-29T09:42:13.442Z,29.05
2022-07-29T09:44:49.158Z,29.19
2022-07-29T09:47:18.558Z,29.31
2022-07-29T09:50:12.183Z,29.41
2022-07-29T09:52:54.378Z,29.42
2022-07-29T09:55:21.672Z,29.47
2022-07-29T09:57:49.175Z,29.59
2022-07-29T10:00:23.891Z,29.69
2022-07-29T10:02:52.019Z,29.66
2022-07-29T10:05:25.877Z,29.61
2022-07-29T10:07:59.346Z,29.54
2022-07-29T10:10:27.328Z,29.53
2022-07-29T10:13:09.805Z,29.59
2022-07-29T10:15:44.795Z,29.59
2022-07-29T10:18:14.553Z,29.62
2022-07-29T10:20:42.638Z,29.70
2022-07-29T10:23:11.090Z,29.72
2022-07-29T10:25:38.524Z,29.84
2022-07-29T10:28:07.246Z,30.00
2022-07-29T10:30:34.734Z,30.05
2022-07-29T10:33:28.827Z,30.17
2022-07-29T10:36:20.074Z,30.31
2022-07-29T10:39:41.847Z,30.41
2022-07-29T10:42:20.310Z,30.50
2022-07-29T10:44:57.764Z,30.53
2022-07-29T10:47:28.385Z,30.61
2022-07-29T10:50:01.618Z,30.71
2022-07-29T10:52:50.381Z,30.77
2022-07-29T10:55:45.538Z,30.91
2022-07-29T10:58:21.317Z,31.00
2022-07-29T11:00:53.681Z,31.05
2022-07-29T11:03:52.328Z,31.15
2022-07-29T11:06:26.188Z,31.21
2022-07-29T11:09:20.323Z,31.27
2022-07-29T11:11:53.488Z,31.36
2022-07-29T11:15:03.644Z,31.37
2022-07-29T11:17:47.020Z,31.35
2022-07-29T11:20:42.528Z,31.43
2022-07-29T11:23:33.874Z,31.57
2022-07-29T11:26:13.615Z,31.65
2022-07-29T11:29:05.500Z,31.58
2022-07-29T11:31:34.350Z,31.59
2022-07-29T11:34:22.669Z,31.72
2022-07-29T11:37:14.974Z,31.79
2022-07-29T11:39:54.068Z,31.86
2022-07-29T11:42:28.194Z,31.96
2022-07-29T11:45:43.403Z,32.08
2022-07-29T11:48:29.854Z,32.03
2022-07-29T11:50:49.368Z,32.01
2022-07-29T11:53:17.264Z,32.01
2022-07-29T11:55:51.315Z,32.07
2022-07-29T11:58:26.278Z,32.23
2022-07-29T12:00:55.782Z,32.23
2022-07-29T12:03:32.957Z,32.31
2022-07-29T12:06:07.590Z,32.45
2022-07-29T12:08:43.602Z,32.42
2022-07-29T12:11:21.300Z,32.35
2022-07-29T12:13:49.822Z,32.40
2022-07-29T12:16:25.755Z,32.40
2022-07-29T12:19:01.988Z,32.36
2022-07-29T12:21:54.031Z,32.40
2022-07-29T12:24:26.669Z,32.43
2022-07-29T12:26:59.981Z,32.54
2022-07-29T12:29:33.801Z,32.65
2022-07-29T12:32:14.233Z,32.84
2022-07-29T12:34:42.977Z,32.82
2022-07-29T12:37:11.210Z,32.88
2022-07-29T12:39:39.391Z,32.96
2022-07-29T12:42:18.416Z,32.99
2022-07-29T12:44:51.032Z,32.91
2022-07-29T12:47:19.837Z,32.94
2022-07-29T12:49:47.963Z,33.07
2022-07-29T12:52:37.209Z,33.11
2022-07-29T12:55:06.185Z,33.15
2022-07-29T12:57:54.465Z,33.23
2022-07-29T13:00:25.859Z,33.34
2022-07-29T13:02:59.297Z,33.37
2022-07-29T13:05:49.176Z,33.47
2022-07-29T13:08:22.724Z,33.58
2022-07-29T13:10:50.358Z,33.62
2022-07-29T13:13:17.373Z,33.67
2022-07-29T13:15:49.669Z,33.82
2022-07-29T13:18:37.226Z,33.86
2022-07-29T13:21:16.671Z,33.76
2022-07-29T13:23:45.944Z,33.69
2022-07-29T13:26:13.493Z,33.63
2022-07-29T13:28:44.109Z,33.58
2022-07-29T13:31:12.312Z,33.54
2022-07-29T13:33:39.340Z,33.51
2022-07-29T13:36:07.055Z,33.45
2022-07-29T13:38:34.932Z,33.53
2022-07-29T13:41:02.864Z,33.48
2022-07-29T13:43:30.391Z,33.40
2022-07-29T13:45:57.487Z,33.28
2022-07-29T13:48:24.459Z,33.17
2022-07-29T13:50:51.529Z,33.10
2022-07-29T13:53:18.483Z,33.01
2022-07-29T13:55:46.319Z,32.94
2022-07-29T13:58:14.528Z,32.89
2022-07-29T14:00:41.517Z,32.82
2022-07-29T14:03:08.566Z,32.76
2022-07-29T14:05:35.539Z,32.70
2022-07-29T14:08:02.542Z,32.63
2022-07-29T14:10:30.363Z,32.59
2022-07-29T14:12:58.329Z,32.53
2022-07-29T14:15:26.041Z,32.49
2022-07-29T14:17:52.993Z,32.45
2022-07-29T14:20:26.406Z,32.38
2022-07-29T14:22:53.417Z,32.30
2022-07-29T14:25:21.695Z,32.20
2022-07-29T14:27:50.599Z,32.08
2022-07-29T14:30:17.823Z,31.98
2022-07-29T14:32:44.882Z,31.87
2022-07-29T14:35:12.328Z,31.75
2022-07-29T14:37:42.832Z,31.63
2022-07-29T14:40:12.343Z,31.47
2022-07-29T14:42:40.023Z,31.29
2022-07-29T14:45:09.517Z,31.14
2022-07-29T14:47:36.888Z,31.02
2022-07-29T14:50:06.186Z,30.88
2022-07-29T14:52:36.184Z,30.71
2022-07-29T14:55:05.196Z,30.61
2022-07-29T14:57:43.356Z,30.49
2022-07-29T15:00:12.153Z,30.45
2022-07-29T15:03:00.328Z,30.34
2022-07-29T15:05:26.709Z,30.27
2022-07-29T15:07:54.481Z,30.26
2022-07-29T15:10:21.688Z,30.25
2022-07-29T15:12:57.943Z,30.22
2022-07-29T15:18:42.810Z,30.11
2022-07-29T15:21:10.852Z,30.08
2022-07-29T15:23:38.180Z,30.02
2022-07-29T15:26:05.487Z,29.95
2022-07-29T15:28:32.834Z,29.88
2022-07-29T15:31:00.363Z,29.80
2022-07-29T15:33:27.709Z,29.76
2022-07-29T15:35:57.100Z,29.69
2022-07-29T15:38:28.847Z,29.64
2022-07-29T15:40:56.087Z,29.61
2022-07-29T15:43:24.269Z,29.59
2022-07-29T15:46:12.309Z,29.52
2022-07-29T15:48:40.344Z,29.48
2022-07-29T15:51:07.758Z,29.45
2022-07-29T15:53:35.306Z,29.37
2022-07-29T15:56:03.446Z,29.34
2022-07-29T15:58:31.017Z,29.29
2022-07-29T16:00:58.086Z,29.24
2022-07-29T16:03:25.188Z,29.20
2022-07-29T16:05:52.169Z,29.13
2022-07-29T16:08:19.401Z,29.10
2022-07-29T16:10:46.487Z,29.06
2022-07-29T16:13:17.115Z,29.00
2022-07-29T16:15:46.259Z,28.98
2022-07-29T16:18:31.291Z,28.93
2022-07-29T16:20:58.738Z,28.91
2022-07-29T16:23:25.746Z,28.91
2022-07-29T16:26:01.270Z,28.86
2022-07-29T16:28:30.387Z,28.84
2022-07-29T16:30:58.209Z,28.82
2022-07-29T16:33:25.685Z,28.80
2022-07-29T16:35:53.261Z,28.79
2022-07-29T16:38:20.394Z,28.79
2022-07-29T16:40:47.476Z,28.77
2022-07-29T16:43:14.871Z,28.74
2022-07-29T16:45:46.276Z,28.71
2022-07-29T16:48:15.113Z,28.62
2022-07-29T16:50:45.498Z,28.57
2022-07-29T16:53:12.484Z,28.52
2022-07-29T16:55:42.353Z,28.47
2022-07-29T16:58:11.219Z,28.40
2022-07-29T17:00:39.707Z,28.33
2022-07-29T17:03:07.056Z,28.36
2022-07-29T17:05:53.692Z,28.34
2022-07-29T17:08:22.204Z,28.28
2022-07-29T17:10:49.584Z,28.27
2022-07-29T17:13:16.538Z,28.17
2022-07-29T17:15:44.148Z,28.10
2022-07-29T17:18:12.407Z,27.81
2022-07-29T17:20:41.958Z,27.83
2022-07-29T17:23:09.604Z,27.67
2022-07-29T17:25:37.551Z,27.66
2022-07-29T17:28:05.259Z,27.33
2022-07-29T17:30:32.486Z,27.37
2022-07-29T17:32:59.546Z,27.38
2022-07-29T17:35:45.108Z,27.39
2022-07-29T17:38:12.133Z,27.33
2022-07-29T17:40:39.153Z,27.31
2022-07-29T17:43:09.261Z,27.31
2022-07-29T17:45:49.037Z,27.27
2022-07-29T17:48:18.309Z,27.23
2022-07-29T17:50:46.426Z,27.25
2022-07-29T17:53:16.797Z,27.20
2022-07-29T17:55:46.378Z,27.25
2022-07-29T17:58:15.833Z,27.17
2022-07-29T18:00:43.016Z,27.08
2022-07-29T18:03:10.592Z,27.07
2022-07-29T18:05:37.734Z,27.09
2022-07-29T18:08:05.160Z,27.14
2022-07-29T18:10:32.447Z,27.12
2022-07-29T18:12:59.674Z,27.15
2022-07-29T18:15:26.791Z,27.10
2022-07-29T18:17:57.617Z,27.12
2022-07-29T18:20:26.887Z,26.98
2022-07-29T18:22:54.203Z,26.92
2022-07-29T18:25:21.464Z,26.95
2022-07-29T18:27:48.962Z,26.88
2022-07-29T18:30:16.505Z,26.76
2022-07-29T18:32:59.162Z,26.77
2022-07-29T18:35:32.397Z,26.76
2022-07-29T18:38:02.200Z,26.70
2022-07-29T18:40:32.787Z,26.73
2022-07-29T18:42:59.775Z,26.61
2022-07-29T18:45:28.345Z,26.59
2022-07-29T18:47:56.862Z,26.54
2022-07-29T18:50:29.687Z,26.50
2022-07-29T18:52:59.006Z,26.51
2022-07-29T18:55:26.791Z,26.52
2022-07-29T18:57:56.530Z,26.46
2022-07-29T19:00:26.132Z,26.44
2022-07-29T19:02:53.512Z,26.40
2022-07-29T19:05:21.033Z,26.32
2022-07-29T19:07:48.076Z,26.26
2022-07-29T19:10:15.053Z,26.24
2022-07-29T19:12:42.495Z,26.23
2022-07-29T19:15:10.697Z,26.29
2022-07-29T19:17:38.855Z,26.36
2022-07-29T19:20:08.883Z,26.41
2022-07-29T19:22:36.147Z,26.45
2022-07-29T19:25:03.412Z,26.46
2022-07-29T19:27:30.696Z,26.45
2022-07-29T19:29:59.497Z,26.45
2022-07-29T19:32:27.289Z,26.47
2022-07-29T19:35:19.003Z,26.43
2022-07-29T19:37:46.025Z,26.39
2022-07-29T19:40:14.062Z,26.34
2022-07-29T19:42:41.068Z,26.37
2022-07-29T19:45:08.969Z,26.38
2022-07-29T19:47:36.529Z,26.35
2022-07-29T19:50:04.165Z,26.31
2022-07-29T19:52:31.119Z,26.30
2022-07-29T19:54:58.544Z,26.28
2022-07-29T19:57:25.711Z,26.28
2022-07-29T19:59:54.443Z,26.25
2022-07-29T20:02:23.668Z,26.27
2022-07-29T20:04:50.843Z,26.29
2022-07-29T20:07:17.897Z,26.30
2022-07-29T20:09:46.054Z,26.33
2022-07-29T20:12:13.198Z,26.35
2022-07-29T20:14:40.355Z,26.38
2022-07-29T20:17:07.531Z,26.40
2022-07-29T20:19:35.924Z,26.42
2022-07-29T20:22:03.250Z,26.43
2022-07-29T20:24:30.401Z,26.42
2022-07-29T20:26:57.753Z,26.44
2022-07-29T20:29:25.660Z,26.44
2022-07-29T20:31:56.208Z,26.45
2022-07-29T20:34:24.252Z,26.45
2022-07-29T20:36:51.687Z,26.46
2022-07-29T20:39:21.027Z,26.45
2022-07-29T20:41:49.217Z,26.43
2022-07-29T20:44:18.764Z,26.41
2022-07-29T20:46:45.890Z,26.39
2022-07-29T20:49:12.961Z,26.39
2022-07-29T20:51:43.951Z,26.35
2022-07-29T20:54:12.239Z,26.32
2022-07-29T20:56:39.951Z,26.30
2022-07-29T20:59:08.917Z,26.27
2022-07-29T21:01:36.276Z,26.21
2022-07-29T21:04:03.891Z,26.17
2022-07-29T21:06:31.580Z,26.14
2022-07-29T21:08:59.803Z,26.12
2022-07-29T21:11:44.323Z,26.08
2022-07-29T21:14:22.960Z,26.06
2022-07-29T21:16:50.662Z,26.07
2022-07-29T21:19:17.741Z,26.09
2022-07-29T21:21:44.825Z,26.02
2022-07-29T21:24:12.172Z,26.01
2022-07-29T21:26:39.366Z,25.99
2022-07-29T21:29:06.777Z,26.00
2022-07-29T21:31:34.118Z,26.01
2022-07-29T21:34:01.119Z,25.97
2022-07-29T21:36:47.662Z,25.92
2022-07-29T21:39:15.484Z,25.89
2022-07-29T21:41:43.156Z,25.84
2022-07-29T21:44:10.323Z,25.84
2022-07-29T21:46:37.606Z,25.82
2022-07-29T21:49:04.851Z,25.84
2022-07-29T21:51:31.869Z,25.85
2022-07-29T21:53:58.889Z,25.82
2022-07-29T21:56:27.833Z,25.82
2022-07-29T21:58:55.830Z,25.80
2022-07-29T22:01:22.953Z,25.77
2022-07-29T22:03:50.017Z,25.76
2022-07-29T22:06:18.001Z,25.73
2022-07-29T22:08:46.115Z,25.68
2022-07-29T22:11:13.554Z,25.65
2022-07-29T22:13:40.755Z,25.67
2022-07-29T22:16:10.109Z,25.69
2022-07-29T22:18:37.118Z,25.67
2022-07-29T22:21:04.131Z,25.62
2022-07-29T22:23:31.331Z,25.59
2022-07-29T22:25:58.542Z,25.59
2022-07-29T22:28:25.742Z,25.56
2022-07-29T22:30:52.726Z,25.54
2022-07-29T22:33:19.790Z,25.52
2022-07-29T22:35:48.725Z,25.51
2022-07-29T22:38:17.902Z,25.46
2022-07-29T22:40:46.968Z,25.41
2022-07-29T22:43:15.920Z,25.40
2022-07-29T22:45:42.897Z,25.40
2022-07-29T22:48:10.531Z,25.41
2022-07-29T22:50:38.529Z,25.37
2022-07-29T22:53:05.528Z,25.32
2022-07-29T22:55:32.494Z,25.31
2022-07-29T22:57:59.456Z,25.27
2022-07-29T23:00:26.469Z,25.23
2022-07-29T23:02:53.387Z,25.21
2022-07-29T23:05:20.396Z,25.22
2022-07-29T23:07:47.449Z,25.22
2022-07-29T23:10:14.409Z,25.21
2022-07-29T23:12:41.343Z,25.20
2022-07-29T23:15:08.668Z,25.15
2022-07-29T23:17:36.906Z,25.14
2022-07-29T23:20:09.923Z,25.14
2022-07-29T23:22:37.858Z,25.13
2022-07-29T23:25:06.397Z,25.11
2022-07-29T23:27:33.686Z,25.09
2022-07-29T23:30:01.109Z,25.05
2022-07-29T23:32:28.230Z,25.03
2022-07-29T23:34:55.514Z,24.98
2022-07-29T23:37:22.647Z,24.95
2022-07-29T23:39:49.614Z,24.93
2022-07-29T23:42:16.663Z,24.89
2022-07-29T23:44:43.765Z,24.85
2022-07-29T23:47:10.751Z,24.83
2022-07-29T23:49:37.958Z,24.83
2022-07-29T23:52:05.853Z,24.85
2022-07-29T23:54:33.349Z,24.78
2022-07-29T23:57:01.213Z,24.74
2022-07-29T23:59:28.381Z,24.72
